createdAt,value
2022-10-06T00:01:24.892Z,101938.63
2022-10-06T00:03:52.326Z,101934.19
2022-10-06T00:06:20.990Z,101938.63
2022-10-06T00:08:49.553Z,101932.31
2022-10-06T00:11:17.569Z,101937.53
2022-10-06T00:13:45.017Z,101938.63
2022-10-06T00:16:18.275Z,101933.34
2022-10-06T00:18:45.739Z,101938.63
2022-10-06T00:21:13.092Z,101938.63
2022-10-06T00:23:40.606Z,101943.03
2022-10-06T00:26:16.642Z,101937.53
2022-10-06T00:28:46.779Z,101935.66
2022-10-06T00:31:14.422Z,101938.63
2022-10-06T00:33:42.425Z,101928.94
2022-10-06T00:36:09.866Z,101928.69
2022-10-06T00:38:37.241Z,101928.94
2022-10-06T00:41:04.620Z,101929.16
2022-10-06T00:43:48.160Z,101934.44
2022-10-06T00:46:29.053Z,101931.91
2022-10-06T00:49:28.641Z,101925.59
2022-10-06T00:52:00.072Z,101930.81
2022-10-06T00:54:27.586Z,101928.09
2022-10-06T00:56:55.775Z,101929.16
2022-10-06T00:59:23.193Z,101928.94
2022-10-06T01:01:56.795Z,101921.97
2022-10-06T01:04:25.197Z,101928.09
2022-10-06T01:06:55.185Z,101925.59
2022-10-06T01:09:23.519Z,101932.72
2022-10-06T01:11:54.251Z,101932.72
2022-10-06T01:14:22.560Z,101930.22
2022-10-06T01:16:53.655Z,101930.00
2022-10-06T01:19:44.295Z,101921.78
2022-10-06T01:22:12.145Z,101925.97
2022-10-06T01:24:39.630Z,101928.94
2022-10-06T01:27:07.235Z,101937.16
2022-10-06T01:29:34.646Z,101923.69
2022-10-06T01:32:02.104Z,101931.91
2022-10-06T01:34:29.541Z,101927.47
2022-10-06T01:36:56.980Z,101933.19
2022-10-06T01:39:27.039Z,101931.06
2022-10-06T01:42:13.018Z,101927.47
2022-10-06T01:44:40.489Z,101926.63
2022-10-06T01:47:08.084Z,101931.06
2022-10-06T01:49:35.525Z,101922.84
2022-10-06T01:52:03.110Z,101931.06
2022-10-06T01:54:30.493Z,101920.94
2022-10-06T01:56:57.905Z,101923.88
2022-10-06T01:59:26.583Z,101925.59
2022-10-06T02:01:54.086Z,101927.47
2022-10-06T02:04:21.962Z,101921.97
2022-10-06T02:06:50.571Z,101922.84
2022-10-06T02:09:18.328Z,101916.50
2022-10-06T02:11:45.813Z,101916.75
2022-10-06T02:14:13.268Z,101911.25
2022-10-06T02:16:44.166Z,101915.06
2022-10-06T02:19:12.381Z,101909.34
2022-10-06T02:21:39.807Z,101912.09
2022-10-06T02:24:07.180Z,101914.22
2022-10-06T02:26:34.585Z,101910.41
2022-10-06T02:29:02.117Z,101910.41
2022-10-06T02:31:29.687Z,101908.72
2022-10-06T02:33:57.433Z,101907.66
2022-10-06T02:36:24.924Z,101904.91
2022-10-06T02:38:56.372Z,101911.69
2022-10-06T02:41:24.213Z,101908.72
2022-10-06T02:43:55.155Z,101907.91
2022-10-06T02:46:24.183Z,101910.41
2022-10-06T02:48:53.861Z,101907.91
2022-10-06T02:51:21.786Z,101912.31
2022-10-06T02:53:49.587Z,101913.38
2022-10-06T02:56:19.937Z,101910.84
2022-10-06T02:58:47.922Z,101913.38
2022-10-06T03:01:25.788Z,101910.00
2022-10-06T03:03:55.293Z,101917.56
2022-10-06T03:06:24.214Z,101917.56
2022-10-06T03:09:07.585Z,101909.56
2022-10-06T03:11:38.895Z,101913.38
2022-10-06T03:14:06.922Z,101916.13
2022-10-06T03:16:39.096Z,101917.38
2022-10-06T03:19:09.699Z,101923.50
2022-10-06T03:21:42.387Z,101921.81
2022-10-06T03:24:10.136Z,101920.97
2022-10-06T03:26:40.159Z,101919.28
2022-10-06T03:29:11.693Z,101913.81
2022-10-06T03:31:43.292Z,101917.38
2022-10-06T03:34:11.927Z,101912.97
2022-10-06T03:36:39.704Z,101912.97
2022-10-06T03:39:07.998Z,101913.81
2022-10-06T03:41:37.017Z,101907.50
2022-10-06T03:44:06.028Z,101905.81
2022-10-06T03:46:35.614Z,101909.38
2022-10-06T03:49:05.798Z,101915.72
2022-10-06T03:51:35.423Z,101912.97
2022-10-06T03:54:03.026Z,101910.25
2022-10-06T03:56:36.582Z,101915.94
2022-10-06T03:59:06.649Z,101908.53
2022-10-06T04:01:45.072Z,101911.50
2022-10-06T04:04:14.998Z,101913.81
2022-10-06T04:06:45.850Z,101914.66
2022-10-06T04:09:17.190Z,101908.34
2022-10-06T04:11:45.338Z,101912.75
2022-10-06T04:14:15.425Z,101913.81
2022-10-06T04:16:47.638Z,101908.75
2022-10-06T04:19:17.903Z,101915.94
2022-10-06T04:21:51.167Z,101920.34
2022-10-06T04:24:21.862Z,101923.09
2022-10-06T04:26:50.295Z,101916.97
2022-10-06T04:29:19.605Z,101926.06
2022-10-06T04:31:54.663Z,101925.22
2022-10-06T04:34:36.602Z,101926.06
2022-10-06T04:37:04.245Z,101927.72
2022-10-06T04:39:32.085Z,101937.25
2022-10-06T04:41:59.882Z,101936.16
2022-10-06T04:44:30.072Z,101939.16
2022-10-06T04:47:01.388Z,101942.94
2022-10-06T04:49:28.789Z,101949.25
2022-10-06T04:51:57.237Z,101945.47
2022-10-06T04:54:26.430Z,101944.63
2022-10-06T04:56:58.160Z,101950.13
2022-10-06T04:59:46.744Z,101950.34
2022-10-06T05:02:16.970Z,101957.25
2022-10-06T05:04:45.559Z,101948.22
2022-10-06T05:07:15.002Z,101950.13
2022-10-06T05:09:42.828Z,101954.97
2022-10-06T05:12:11.501Z,101955.81
2022-10-06T05:14:39.650Z,101955.81
2022-10-06T05:17:07.128Z,101950.53
2022-10-06T05:19:36.009Z,101957.72
2022-10-06T05:22:03.584Z,101967.81
2022-10-06T05:24:32.611Z,101967.81
2022-10-06T05:27:02.191Z,101963.22
2022-10-06T05:29:30.216Z,101964.03
2022-10-06T05:32:00.881Z,101970.34
2022-10-06T05:34:29.771Z,101971.19
2022-10-06T05:36:57.300Z,101975.63
2022-10-06T05:39:25.472Z,101975.84
2022-10-06T05:41:56.833Z,101979.41
2022-10-06T05:44:25.359Z,101987.00
2022-10-06T05:46:53.923Z,101978.78
2022-10-06T05:49:21.651Z,101982.38
2022-10-06T05:51:53.889Z,101980.28
2022-10-06T05:54:25.472Z,101985.75
2022-10-06T05:56:53.537Z,101991.00
2022-10-06T05:59:22.181Z,101992.06
2022-10-06T06:01:50.052Z,101992.91
2022-10-06T06:04:34.572Z,101993.72
2022-10-06T06:07:05.073Z,101992.91
2022-10-06T06:09:33.051Z,102004.06
2022-10-06T06:12:01.878Z,101988.69
2022-10-06T06:15:10.654Z,101993.34
2022-10-06T06:17:49.329Z,101996.31
2022-10-06T06:20:17.004Z,101996.94
2022-10-06T06:22:44.474Z,101990.38
2022-10-06T06:25:13.023Z,101998.84
2022-10-06T06:28:00.065Z,102004.94
2022-10-06T06:30:27.753Z,102010.19
2022-10-06T06:33:00.373Z,102009.34
2022-10-06T06:35:28.366Z,102010.41
2022-10-06T06:37:56.259Z,102014.00
2022-10-06T06:40:23.747Z,102012.09
2022-10-06T06:42:53.835Z,102015.66
2022-10-06T06:45:39.035Z,102023.88
2022-10-06T06:48:20.252Z,102022.00
2022-10-06T06:50:55.811Z,102033.19
2022-10-06T06:53:23.281Z,102031.06
2022-10-06T06:55:51.223Z,102023.88
2022-10-06T06:58:20.922Z,102030.22
2022-10-06T07:00:48.672Z,102038.22
2022-10-06T07:03:38.567Z,102032.72
2022-10-06T07:06:12.964Z,102043.28
2022-10-06T07:08:42.769Z,102042.22
2022-10-06T07:11:24.777Z,102038.63
2022-10-06T07:13:55.805Z,102039.25
2022-10-06T07:16:41.941Z,102044.72
2022-10-06T07:19:31.415Z,102039.03
2022-10-06T07:22:17.935Z,102042.41
2022-10-06T07:25:03.873Z,102047.03
2022-10-06T07:27:31.834Z,102045.75
2022-10-06T07:29:59.520Z,102054.59
2022-10-06T07:32:31.224Z,102062.81
2022-10-06T07:34:58.933Z,102063.44
2022-10-06T07:37:26.943Z,102068.72
2022-10-06T07:39:54.484Z,102063.44
2022-10-06T07:42:22.956Z,102059.41
2022-10-06T07:45:09.247Z,102066.59
2022-10-06T07:47:39.211Z,102065.31
2022-10-06T07:50:07.714Z,102067.22
2022-10-06T07:52:39.284Z,102072.50
2022-10-06T07:55:07.518Z,102066.19
2022-10-06T07:58:01.884Z,102071.41
2022-10-06T08:00:29.483Z,102071.22
2022-10-06T08:02:56.996Z,102071.22
2022-10-06T08:05:24.449Z,102072.28
2022-10-06T08:07:52.338Z,102084.91
2022-10-06T08:10:20.825Z,102090.19
2022-10-06T08:12:48.275Z,102083.88
2022-10-06T08:15:15.745Z,102088.28
2022-10-06T08:17:43.204Z,102084.91
2022-10-06T08:20:13.862Z,102089.34
2022-10-06T08:22:41.344Z,102093.75
2022-10-06T08:25:09.999Z,102092.09
2022-10-06T08:27:37.996Z,102093.75
2022-10-06T08:30:05.931Z,102088.50
2022-10-06T08:32:33.464Z,102088.28
2022-10-06T08:35:00.836Z,102093.56
2022-10-06T08:37:28.194Z,102091.03
2022-10-06T08:39:55.649Z,102093.75
2022-10-06T08:42:42.669Z,102093.16
2022-10-06T08:45:20.587Z,102098.41
2022-10-06T08:47:53.457Z,102104.94
2022-10-06T08:50:58.345Z,102093.75
2022-10-06T08:53:40.385Z,102098.41
2022-10-06T08:56:18.962Z,102095.88
2022-10-06T08:58:59.446Z,102099.72
2022-10-06T09:01:29.024Z,102097.59
2022-10-06T09:04:01.600Z,102107.69
2022-10-06T09:06:48.705Z,102093.34
2022-10-06T09:09:25.356Z,102095.88
2022-10-06T09:12:23.742Z,102096.72
2022-10-06T09:15:13.108Z,102091.25
2022-10-06T09:17:49.824Z,102089.56
2022-10-06T09:20:20.729Z,102092.94
2022-10-06T09:22:49.143Z,102094.59
2022-10-06T09:25:21.203Z,102102.00
2022-10-06T09:27:56.384Z,102094.59
2022-10-06T09:30:24.114Z,102101.16
2022-10-06T09:33:00.042Z,102097.59
2022-10-06T09:35:29.150Z,102101.78
2022-10-06T09:38:08.127Z,102099.03
2022-10-06T09:40:42.046Z,102100.94
2022-10-06T09:43:18.261Z,102099.88
2022-10-06T09:45:45.605Z,102097.97
2022-10-06T09:48:24.685Z,102100.94
2022-10-06T09:51:32.246Z,102104.31
2022-10-06T09:54:15.495Z,102103.25
2022-10-06T09:56:45.098Z,102100.28
2022-10-06T09:59:22.597Z,102103.25
2022-10-06T10:01:53.989Z,102097.75
2022-10-06T10:04:30.357Z,102103.03
2022-10-06T10:07:24.204Z,102097.75
2022-10-06T10:09:52.650Z,102098.38
2022-10-06T10:12:32.870Z,102101.31
2022-10-06T10:15:01.950Z,102096.50
2022-10-06T10:17:29.332Z,102091.00
2022-10-06T10:19:56.962Z,102091.84
2022-10-06T10:22:33.735Z,102082.13
2022-10-06T10:25:05.098Z,102083.63
2022-10-06T10:28:11.234Z,102083.63
2022-10-06T10:30:45.310Z,102083.63
2022-10-06T10:33:29.441Z,102077.28
2022-10-06T10:35:57.035Z,102079.78
2022-10-06T10:38:24.838Z,102080.88
2022-10-06T10:41:22.654Z,102087.41
2022-10-06T10:43:55.482Z,102070.72
2022-10-06T10:46:30.790Z,102073.47
2022-10-06T10:49:04.293Z,102071.56
2022-10-06T10:51:41.071Z,102086.16
2022-10-06T10:54:11.493Z,102088.03
2022-10-06T10:56:38.870Z,102080.66
2022-10-06T10:59:15.347Z,102085.28
2022-10-06T11:01:50.735Z,102085.28
2022-10-06T11:04:18.176Z,102081.50
2022-10-06T11:07:11.828Z,102083.63
2022-10-06T11:09:49.173Z,102080.88
2022-10-06T11:12:33.808Z,102078.13
2022-10-06T11:15:06.476Z,102083.78
2022-10-06T11:17:44.597Z,102073.88
2022-10-06T11:20:14.993Z,102068.63
2022-10-06T11:23:06.726Z,102072.44
2022-10-06T11:25:44.996Z,102067.16
2022-10-06T11:28:37.841Z,102063.34
2022-10-06T11:31:16.684Z,102063.34
2022-10-06T11:33:51.379Z,102050.69
2022-10-06T11:36:26.582Z,102057.84
2022-10-06T11:39:01.253Z,102052.63
2022-10-06T11:41:37.935Z,102051.53
2022-10-06T11:44:15.419Z,102056.81
2022-10-06T11:46:51.861Z,102052.38
2022-10-06T11:49:28.420Z,102042.25
2022-10-06T11:52:11.506Z,102050.69
2022-10-06T11:54:45.339Z,102043.31
2022-10-06T11:57:30.893Z,102041.41
2022-10-06T12:00:04.564Z,102035.06
2022-10-06T12:02:34.554Z,102036.78
2022-10-06T12:05:44.660Z,102038.66
2022-10-06T12:08:01.533Z,102030.44
2022-10-06T12:10:28.820Z,102024.94
2022-10-06T12:13:50.484Z,102023.06
2022-10-06T12:19:38.496Z,102014.59
2022-10-06T12:22:17.280Z,102018.41
2022-10-06T12:24:51.155Z,102017.34
2022-10-06T12:27:27.675Z,102010.19
2022-10-06T12:30:05.594Z,102001.97
2022-10-06T12:32:42.186Z,102004.69
2022-10-06T12:35:18.069Z,101994.78
2022-10-06T12:37:53.910Z,101997.50
2022-10-06T12:40:46.675Z,101989.28
2022-10-06T12:43:22.114Z,101991.81
2022-10-06T12:45:55.700Z,101989.28
2022-10-06T12:48:27.419Z,101989.91
2022-10-06T12:51:06.984Z,101993.72
2022-10-06T12:53:41.584Z,101989.06
2022-10-06T12:56:17.801Z,101990.97
2022-10-06T12:58:45.160Z,101987.16
2022-10-06T13:01:12.647Z,101981.69
2022-10-06T13:03:40.111Z,101992.66
2022-10-06T13:06:08.068Z,101991.81
2022-10-06T13:08:36.852Z,101986.31
2022-10-06T13:11:21.730Z,101986.31
2022-10-06T13:13:50.845Z,101985.50
2022-10-06T13:16:21.575Z,101992.44
2022-10-06T13:18:49.388Z,101994.34
2022-10-06T13:21:16.782Z,101992.44
2022-10-06T13:23:44.198Z,101988.84
2022-10-06T13:26:28.093Z,101999.00
2022-10-06T13:28:56.562Z,101993.25
2022-10-06T13:31:31.531Z,101993.50
2022-10-06T13:34:03.096Z,101986.31
2022-10-06T13:36:35.135Z,101987.78
2022-10-06T13:39:19.423Z,101983.59
2022-10-06T13:42:01.532Z,101984.22
2022-10-06T13:44:30.681Z,101984.00
2022-10-06T13:47:22.508Z,101975.16
2022-10-06T13:50:05.055Z,101975.97
2022-10-06T13:52:38.770Z,101978.50
2022-10-06T13:55:23.315Z,101986.94
2022-10-06T13:58:14.497Z,101975.97
2022-10-06T14:00:56.363Z,101980.63
2022-10-06T14:06:16.980Z,101984.22
2022-10-06T14:08:55.114Z,101986.94
2022-10-06T14:11:27.321Z,101975.16
2022-10-06T14:13:58.493Z,101977.88
2022-10-06T14:16:26.632Z,101982.28
2022-10-06T14:18:59.848Z,101978.72
2022-10-06T14:21:31.976Z,101975.97
2022-10-06T14:24:01.285Z,101974.06
2022-10-06T14:26:36.427Z,101975.16
2022-10-06T14:29:03.954Z,101986.13
2022-10-06T14:31:33.922Z,101969.44
2022-10-06T14:34:01.749Z,101979.56
2022-10-06T14:36:34.523Z,101983.16
2022-10-06T14:39:08.062Z,101976.81
2022-10-06T14:41:35.452Z,101977.66
2022-10-06T14:44:06.073Z,101974.94
2022-10-06T14:46:33.597Z,101976.81
2022-10-06T14:49:03.234Z,101979.56
2022-10-06T14:51:33.216Z,101979.56
2022-10-06T14:54:03.729Z,101982.28
2022-10-06T14:56:34.676Z,101979.56
2022-10-06T14:59:05.091Z,101982.28
2022-10-06T15:01:33.881Z,101983.16
2022-10-06T15:04:03.442Z,101984.00
2022-10-06T15:06:49.603Z,101977.66
2022-10-06T15:09:16.974Z,101984.81
2022-10-06T15:11:44.376Z,101980.63
2022-10-06T15:14:11.751Z,101984.81
2022-10-06T15:16:42.135Z,101981.47
2022-10-06T15:19:10.937Z,101981.25
2022-10-06T15:21:39.811Z,101978.50
2022-10-06T15:24:09.738Z,101979.56
2022-10-06T15:26:55.667Z,101981.25
2022-10-06T15:29:23.016Z,101977.44
2022-10-06T15:31:52.546Z,101979.56
2022-10-06T15:34:27.399Z,101973.84
2022-10-06T15:36:55.564Z,101979.34
2022-10-06T15:39:24.582Z,101978.50
2022-10-06T15:41:52.036Z,101977.66
2022-10-06T15:44:22.383Z,101981.25
2022-10-06T15:46:51.057Z,101981.25
2022-10-06T15:49:22.805Z,101984.00
2022-10-06T15:51:51.168Z,101989.47
2022-10-06T15:54:21.787Z,101985.91
2022-10-06T15:56:53.453Z,101985.91
2022-10-06T15:59:23.798Z,101988.41
2022-10-06T16:01:56.065Z,101988.41
2022-10-06T16:04:47.385Z,101988.66
2022-10-06T16:07:16.526Z,101995.56
2022-10-06T16:09:45.338Z,101998.53
2022-10-06T16:12:16.328Z,102000.44
2022-10-06T16:14:43.894Z,101994.97
2022-10-06T16:17:11.360Z,102000.44
2022-10-06T16:19:40.064Z,102000.44
2022-10-06T16:22:08.401Z,102005.94
2022-10-06T16:24:35.797Z,102005.09
2022-10-06T16:27:03.351Z,102009.50
2022-10-06T16:29:31.118Z,102012.25
2022-10-06T16:31:59.277Z,102011.41
2022-10-06T16:34:26.720Z,102007.84
2022-10-06T16:36:54.098Z,102011.41
2022-10-06T16:39:21.878Z,102015.00
2022-10-06T16:41:50.470Z,102015.00
2022-10-06T16:44:17.941Z,102020.47
2022-10-06T16:46:45.485Z,102022.19
2022-10-06T16:49:12.983Z,102026.78
2022-10-06T16:51:42.058Z,102029.78
2022-10-06T16:54:13.568Z,102033.38
2022-10-06T16:56:42.508Z,102028.91
2022-10-06T16:59:14.552Z,102043.25
2022-10-06T17:01:42.010Z,102037.78
2022-10-06T17:04:16.969Z,102038.84
2022-10-06T17:06:50.027Z,102039.69
2022-10-06T17:09:18.648Z,102041.59
2022-10-06T17:11:53.430Z,102047.91
2022-10-06T17:14:21.574Z,102054.22
2022-10-06T17:16:50.709Z,102050.44
2022-10-06T17:19:18.998Z,102053.19
2022-10-06T17:21:48.769Z,102055.31
2022-10-06T17:24:18.272Z,102064.38
2022-10-06T17:26:47.472Z,102061.63
2022-10-06T17:29:19.478Z,102067.09
2022-10-06T17:31:47.434Z,102063.75
2022-10-06T17:34:20.357Z,102076.41
2022-10-06T17:36:50.719Z,102075.34
2022-10-06T17:39:20.450Z,102073.88
2022-10-06T17:41:48.948Z,102081.03
2022-10-06T17:44:20.514Z,102081.91
2022-10-06T17:46:48.271Z,102078.28
2022-10-06T17:49:16.876Z,102073.88
2022-10-06T17:51:45.269Z,102089.25
2022-10-06T17:54:16.161Z,102078.53
2022-10-06T17:56:44.670Z,102077.69
2022-10-06T17:59:30.129Z,102077.06
2022-10-06T18:01:58.985Z,102078.13
2022-10-06T18:04:27.086Z,102074.09
2022-10-06T18:06:54.607Z,102071.56
2022-10-06T18:09:22.253Z,102082.78
2022-10-06T18:11:55.505Z,102081.09
2022-10-06T18:14:27.281Z,102079.38
2022-10-06T18:16:59.860Z,102079.38
2022-10-06T18:19:31.595Z,102081.09
2022-10-06T18:22:01.124Z,102082.78
2022-10-06T18:24:29.910Z,102084.66
2022-10-06T18:26:58.162Z,102082.78
2022-10-06T18:29:29.247Z,102081.91
2022-10-06T18:32:05.102Z,102081.09
2022-10-06T18:37:30.975Z,102089.31
2022-10-06T18:39:58.351Z,102094.78
2022-10-06T18:42:25.701Z,102090.34
2022-10-06T18:45:11.893Z,102097.53
2022-10-06T18:47:57.777Z,102095.84
2022-10-06T18:50:25.176Z,102110.41
2022-10-06T18:52:52.559Z,102103.25
2022-10-06T18:55:20.150Z,102104.31
2022-10-06T18:57:48.130Z,102115.28
2022-10-06T19:00:15.608Z,102111.25
2022-10-06T19:02:48.137Z,102116.13
2022-10-06T19:05:17.508Z,102117.16
2022-10-06T19:07:45.500Z,102119.91
2022-10-06T19:10:13.049Z,102120.78
2022-10-06T19:12:40.512Z,102121.81
2022-10-06T19:15:08.514Z,102120.78
2022-10-06T19:17:36.197Z,102119.91
2022-10-06T19:20:03.930Z,102119.69
2022-10-06T19:22:31.384Z,102127.91
2022-10-06T19:24:58.779Z,102127.09
2022-10-06T19:27:26.228Z,102128.13
2022-10-06T19:29:54.779Z,102132.78
2022-10-06T19:32:24.395Z,102133.63
2022-10-06T19:34:52.283Z,102133.63
2022-10-06T19:37:19.727Z,102129.22
2022-10-06T19:39:48.131Z,102137.44
2022-10-06T19:42:35.661Z,102139.34
2022-10-06T19:45:04.412Z,102142.72
2022-10-06T19:47:32.324Z,102142.91
2022-10-06T19:50:03.696Z,102139.34
2022-10-06T19:52:34.516Z,102138.47
2022-10-06T19:55:02.413Z,102139.75
2022-10-06T19:57:31.580Z,102140.38
2022-10-06T19:59:59.508Z,102145.03
2022-10-06T20:02:29.268Z,102145.25
2022-10-06T20:04:56.913Z,102145.25
2022-10-06T20:07:27.603Z,102143.34
2022-10-06T20:09:55.608Z,102150.72
2022-10-06T20:12:25.197Z,102150.09
2022-10-06T20:14:56.456Z,102141.88
2022-10-06T20:17:24.444Z,102149.28
2022-10-06T20:19:57.319Z,102149.91
2022-10-06T20:22:25.376Z,102145.25
2022-10-06T20:24:52.868Z,102147.16
2022-10-06T20:27:20.332Z,102147.16
2022-10-06T20:29:47.684Z,102144.41
2022-10-06T20:32:15.075Z,102144.41
2022-10-06T20:34:42.488Z,102147.38
2022-10-06T20:37:09.874Z,102141.06
2022-10-06T20:39:56.130Z,102141.88
2022-10-06T20:42:27.980Z,102136.19
2022-10-06T20:44:55.415Z,102146.53
2022-10-06T20:47:23.285Z,102150.94
2022-10-06T20:49:55.143Z,102150.94
2022-10-06T20:52:23.738Z,102141.88
2022-10-06T20:54:51.218Z,102149.06
2022-10-06T20:57:18.673Z,102158.13
2022-10-06T20:59:46.211Z,102148.63
2022-10-06T21:02:13.706Z,102146.09
2022-10-06T21:04:43.575Z,102143.13
2022-10-06T21:07:11.367Z,102149.91
2022-10-06T21:09:38.782Z,102149.06
2022-10-06T21:12:06.312Z,102141.06
2022-10-06T21:14:35.253Z,102141.06
2022-10-06T21:17:02.684Z,102156.44
2022-10-06T21:19:30.213Z,102151.19
2022-10-06T21:21:57.765Z,102148.81
2022-10-06T21:24:25.179Z,102152.63
2022-10-06T21:26:52.730Z,102140.84
2022-10-06T21:29:20.522Z,102140.84
2022-10-06T21:31:48.058Z,102146.31
2022-10-06T21:34:15.551Z,102141.06
2022-10-06T21:36:43.876Z,102135.56
2022-10-06T21:39:11.694Z,102134.50
2022-10-06T21:41:39.587Z,102130.09
2022-10-06T21:44:12.153Z,102140.22
2022-10-06T21:46:50.105Z,102129.25
2022-10-06T21:49:24.334Z,102123.75
2022-10-06T21:51:53.327Z,102130.91
2022-10-06T21:54:21.023Z,102131.75
2022-10-06T21:56:48.563Z,102122.69
2022-10-06T21:59:15.994Z,102120.16
2022-10-06T22:01:44.323Z,102129.25
2022-10-06T22:04:12.959Z,102124.81
2022-10-06T22:06:40.378Z,102125.63
2022-10-06T22:09:08.643Z,102128.63
2022-10-06T22:11:37.467Z,102122.28
2022-10-06T22:14:06.055Z,102118.69
2022-10-06T22:16:34.064Z,102115.97
2022-10-06T22:19:02.248Z,102114.06
2022-10-06T22:21:34.274Z,102114.91
2022-10-06T22:24:14.333Z,102109.84
2022-10-06T22:26:42.110Z,102097.19
2022-10-06T22:29:11.714Z,102100.56
2022-10-06T22:31:40.044Z,102102.25
2022-10-06T22:34:08.042Z,102092.31
2022-10-06T22:36:35.538Z,102095.94
2022-10-06T22:39:02.960Z,102095.06
2022-10-06T22:41:31.194Z,102095.06
2022-10-06T22:43:58.809Z,102089.59
2022-10-06T22:46:27.384Z,102091.28
2022-10-06T22:48:54.955Z,102093.19
2022-10-06T22:51:22.572Z,102087.72
2022-10-06T22:53:58.748Z,102074.41
2022-10-06T22:56:30.269Z,102078.63
2022-10-06T22:59:00.731Z,102083.06
2022-10-06T23:01:28.770Z,102075.25
2022-10-06T23:03:56.290Z,102076.31
2022-10-06T23:06:24.617Z,102082.63
2022-10-06T23:08:52.421Z,102080.13
2022-10-06T23:11:20.403Z,102074.00
2022-10-06T23:13:50.100Z,102067.69
2022-10-06T23:16:18.246Z,102064.13
2022-10-06T23:18:45.702Z,102067.06
2022-10-06T23:21:19.083Z,102072.34
2022-10-06T23:23:47.188Z,102073.38
2022-10-06T23:26:15.294Z,102066.41
2022-10-06T23:28:46.266Z,102070.44
2022-10-06T23:31:13.718Z,102070.84
2022-10-06T23:33:41.220Z,102063.03
2022-10-06T23:36:09.846Z,102067.91
2022-10-06T23:38:37.883Z,102070.44
2022-10-06T23:41:06.101Z,102070.44
2022-10-06T23:43:33.710Z,102068.53
2022-10-06T23:46:01.254Z,102055.28
2022-10-06T23:48:28.726Z,102066.22
2022-10-06T23:50:56.645Z,102058.00
2022-10-06T23:53:24.077Z,102057.38
2022-10-06T23:55:51.442Z,102054.66
2022-10-06T23:58:19.138Z,102055.47
